This is the latest recevied weather packets stored in our database for station/object W4MSI. If no packets are shown the sender has not sent any weather packets the latest 10 day(s).
| Time | Temp. | Humidity | Pressure | Rain* | Wind** | Luminosity | Snow |
|---|---|---|---|---|---|---|---|
| 1777491574 | 20.56° C | 62% | 1013.6 hPa | 0 mm | - | 400 W/m² | - |
| 1777491272 | 20.56° C | 65% | 1013.7 hPa | 0 mm | - | 790 W/m² | - |
| 1777490969 | 20.56° C | 62% | 1013.7 hPa | 0 mm | - | 949 W/m² | - |
| 1777490664 | 20° C | 67% | 1013.8 hPa | 0 mm | - | 861 W/m² | - |
| 1777490360 | 20° C | 65% | 1013.9 hPa | 0 mm | - | 353 W/m² | - |
| 1777490058 | 20° C | 67% | 1013.8 hPa | 0 mm | - | 935 W/m² | - |
| 1777489755 | 19.44° C | 68% | 1013.6 hPa | 0 mm | - | 940 W/m² | - |
| 1777489453 | 20° C | 67% | 1013.7 hPa | 0 mm | - | 611 W/m² | - |
| 1777489149 | 20° C | 67% | 1013.7 hPa | 0 mm | - | 722 W/m² | - |
| 1777488847 | 19.44° C | 70% | 1013.7 hPa | 0 mm | - | 682 W/m² | - |
| 1777488544 | 19.44° C | 72% | 1013.8 hPa | 0 mm | - | 588 W/m² | - |
| 1777488241 | 18.89° C | 75% | 1014.1 hPa | 0 mm | - | 301 W/m² | - |
| 1777487940 | 18.89° C | 73% | 1013.8 hPa | 0 mm | - | 469 W/m² | - |
| 1777487636 | 17.78° C | 76% | 1013.9 hPa | 0 mm | - | 1009 W/m² | - |
| 1777487334 | 17.78° C | 79% | 1014.1 hPa | 0 mm | - | 314 W/m² | - |
| 1777487031 | 17.78° C | 78% | 1013.9 hPa | 0 mm | - | 270 W/m² | - |
| 1777486727 | 17.78° C | 80% | 1013.9 hPa | 0 mm | - | 481 W/m² | - |
| 1777486425 | 16.11° C | 84% | 1014.1 hPa | 0 mm | - | 807 W/m² | - |
| 1777486122 | 15.56° C | 87% | 1014 hPa | 0 mm | - | 472 W/m² | - |
| 1777485819 | 16.11° C | 85% | 1014.1 hPa | 0 mm | - | 152 W/m² | - |
| 1777485515 | 16.67° C | 85% | 1014 hPa | 0 mm | - | 105 W/m² | - |
| 1777485211 | 16.67° C | 84% | 1014.1 hPa | 0 mm | - | 109 W/m² | - |
| 1777484907 | 16.67° C | 83% | 1014 hPa | 0 mm | - | 129 W/m² | - |
| 1777484605 | 16.67° C | 82% | 1014.1 hPa | 0 mm | - | 198 W/m² | - |
| 1777484301 | 16.67° C | 84% | 1014 hPa | 0 mm | - | 331 W/m² | - |
* Rain latest hour (hover to see other rain measurements)
** Current wind speed in m/s (hover to see current wind gust speed)